sensor_id;sensor_type;location;lat;lon;timestamp;temperature;humidity
14210;DHT22;7188;56.070;12.698;2022-08-04T00:00:03;18.40;99.90
14210;DHT22;7188;56.070;12.698;2022-08-04T00:11:03;18.50;99.90
14210;DHT22;7188;56.070;12.698;2022-08-04T00:13:31;18.40;99.90
14210;DHT22;7188;56.070;12.698;2022-08-04T00:16:06;18.40;99.90
14210;DHT22;7188;56.070;12.698;2022-08-04T00:18:45;18.40;99.90
14210;DHT22;7188;56.070;12.698;2022-08-04T00:21:14;18.40;99.90
14210;DHT22;7188;56.070;12.698;2022-08-04T00:23:45;18.40;99.90
14210;DHT22;7188;56.070;12.698;2022-08-04T00:26:11;18.40;99.90
14210;DHT22;7188;56.070;12.698;2022-08-04T00:28:39;18.40;99.90
14210;DHT22;7188;56.070;12.698;2022-08-04T00:31:09;18.30;99.90
14210;DHT22;7188;56.070;12.698;2022-08-04T00:33:36;18.30;99.90
14210;DHT22;7188;56.070;12.698;2022-08-04T00:36:03;18.30;99.90
14210;DHT22;7188;56.070;12.698;2022-08-04T00:38:29;18.30;99.90
14210;DHT22;7188;56.070;12.698;2022-08-04T00:41:13;18.30;99.90
14210;DHT22;7188;56.070;12.698;2022-08-04T00:47:35;18.40;99.90
14210;DHT22;7188;56.070;12.698;2022-08-04T00:50:15;18.30;99.90
14210;DHT22;7188;56.070;12.698;2022-08-04T01:02:16;18.30;99.90
14210;DHT22;7188;56.070;12.698;2022-08-04T01:16:17;18.20;99.90
14210;DHT22;7188;56.070;12.698;2022-08-04T01:26:45;18.20;99.90
14210;DHT22;7188;56.070;12.698;2022-08-04T01:29:15;18.20;99.90
14210;DHT22;7188;56.070;12.698;2022-08-04T01:34:23;18.10;99.90
14210;DHT22;7188;56.070;12.698;2022-08-04T01:36:58;18.10;99.90
14210;DHT22;7188;56.070;12.698;2022-08-04T01:39:33;18.00;99.90
14210;DHT22;7188;56.070;12.698;2022-08-04T01:42:06;18.00;99.90
14210;DHT22;7188;56.070;12.698;2022-08-04T01:44:36;18.00;99.90
14210;DHT22;7188;56.070;12.698;2022-08-04T01:47:02;18.00;99.90
14210;DHT22;7188;56.070;12.698;2022-08-04T01:49:30;18.00;99.90
14210;DHT22;7188;56.070;12.698;2022-08-04T01:51:57;17.90;99.90
14210;DHT22;7188;56.070;12.698;2022-08-04T01:54:24;17.90;99.90
14210;DHT22;7188;56.070;12.698;2022-08-04T01:56:50;17.90;99.90
14210;DHT22;7188;56.070;12.698;2022-08-04T01:59:19;17.80;99.90
14210;DHT22;7188;56.070;12.698;2022-08-04T02:01:45;17.70;99.90
14210;DHT22;7188;56.070;12.698;2022-08-04T02:04:19;17.70;99.90
14210;DHT22;7188;56.070;12.698;2022-08-04T02:10:05;17.80;99.90
14210;DHT22;7188;56.070;12.698;2022-08-04T02:12:55;17.80;99.90
14210;DHT22;7188;56.070;12.698;2022-08-04T02:15:26;17.80;99.90
14210;DHT22;7188;56.070;12.698;2022-08-04T02:18:15;17.80;99.90
14210;DHT22;7188;56.070;12.698;2022-08-04T02:20:45;17.80;99.90
14210;DHT22;7188;56.070;12.698;2022-08-04T02:23:27;17.90;99.90
14210;DHT22;7188;56.070;12.698;2022-08-04T02:26:00;17.80;99.90
14210;DHT22;7188;56.070;12.698;2022-08-04T02:28:37;17.80;99.90
14210;DHT22;7188;56.070;12.698;2022-08-04T02:31:30;17.80;99.90
14210;DHT22;7188;56.070;12.698;2022-08-04T02:34:11;17.80;99.90
14210;DHT22;7188;56.070;12.698;2022-08-04T02:36:41;17.80;99.90
14210;DHT22;7188;56.070;12.698;2022-08-04T02:39:09;17.70;99.90
14210;DHT22;7188;56.070;12.698;2022-08-04T02:41:37;17.70;99.90
14210;DHT22;7188;56.070;12.698;2022-08-04T02:44:08;17.70;99.90
14210;DHT22;7188;56.070;12.698;2022-08-04T02:46:35;17.70;99.90
14210;DHT22;7188;56.070;12.698;2022-08-04T02:49:04;17.70;99.90
14210;DHT22;7188;56.070;12.698;2022-08-04T02:51:37;17.70;99.90
14210;DHT22;7188;56.070;12.698;2022-08-04T02:54:06;17.70;99.90
14210;DHT22;7188;56.070;12.698;2022-08-04T02:56:33;17.70;99.90
14210;DHT22;7188;56.070;12.698;2022-08-04T02:59:08;17.70;99.90
14210;DHT22;7188;56.070;12.698;2022-08-04T03:01:35;17.60;99.90
14210;DHT22;7188;56.070;12.698;2022-08-04T03:33:32;17.70;99.90
14210;DHT22;7188;56.070;12.698;2022-08-04T03:42:02;17.70;99.90
14210;DHT22;7188;56.070;12.698;2022-08-04T03:45:09;17.70;99.90
14210;DHT22;7188;56.070;12.698;2022-08-04T03:51:12;17.80;99.90
14210;DHT22;7188;56.070;12.698;2022-08-04T03:54:07;17.80;99.90
14210;DHT22;7188;56.070;12.698;2022-08-04T04:10:45;17.90;99.90
14210;DHT22;7188;56.070;12.698;2022-08-04T04:13:32;18.10;99.90
14210;DHT22;7188;56.070;12.698;2022-08-04T04:22:06;18.50;99.90
14210;DHT22;7188;56.070;12.698;2022-08-04T04:30:44;19.30;99.90
14210;DHT22;7188;56.070;12.698;2022-08-04T04:36:48;19.50;99.90
14210;DHT22;7188;56.070;12.698;2022-08-04T04:42:31;19.80;99.90
14210;DHT22;7188;56.070;12.698;2022-08-04T04:45:23;19.90;99.90
14210;DHT22;7188;56.070;12.698;2022-08-04T04:53:55;20.10;99.90
14210;DHT22;7188;56.070;12.698;2022-08-04T04:59:24;20.30;99.90
14210;DHT22;7188;56.070;12.698;2022-08-04T05:13:30;20.50;99.90
14210;DHT22;7188;56.070;12.698;2022-08-04T05:16:02;20.50;99.90
14210;DHT22;7188;56.070;12.698;2022-08-04T05:18:31;20.60;99.90
14210;DHT22;7188;56.070;12.698;2022-08-04T05:21:18;20.60;99.90
14210;DHT22;7188;56.070;12.698;2022-08-04T05:23:47;20.60;99.90
14210;DHT22;7188;56.070;12.698;2022-08-04T05:26:15;20.70;99.90
14210;DHT22;7188;56.070;12.698;2022-08-04T05:28:49;20.70;99.90
14210;DHT22;7188;56.070;12.698;2022-08-04T05:31:22;20.80;99.90
14210;DHT22;7188;56.070;12.698;2022-08-04T05:34:11;20.80;99.90
14210;DHT22;7188;56.070;12.698;2022-08-04T05:37:02;21.00;99.90
14210;DHT22;7188;56.070;12.698;2022-08-04T05:39:41;21.10;99.90
14210;DHT22;7188;56.070;12.698;2022-08-04T05:42:10;21.20;99.90
14210;DHT22;7188;56.070;12.698;2022-08-04T05:44:37;21.40;99.90
14210;DHT22;7188;56.070;12.698;2022-08-04T05:47:04;21.50;99.90
14210;DHT22;7188;56.070;12.698;2022-08-04T05:49:31;21.60;99.90
14210;DHT22;7188;56.070;12.698;2022-08-04T05:52:00;21.70;99.90
14210;DHT22;7188;56.070;12.698;2022-08-04T05:54:27;21.80;99.90
14210;DHT22;7188;56.070;12.698;2022-08-04T05:56:55;21.90;99.90
14210;DHT22;7188;56.070;12.698;2022-08-04T05:59:22;22.10;99.90
14210;DHT22;7188;56.070;12.698;2022-08-04T06:01:55;22.10;99.90
14210;DHT22;7188;56.070;12.698;2022-08-04T06:04:25;22.20;99.90
14210;DHT22;7188;56.070;12.698;2022-08-04T06:06:53;22.20;99.90
14210;DHT22;7188;56.070;12.698;2022-08-04T06:09:19;22.30;99.90
14210;DHT22;7188;56.070;12.698;2022-08-04T06:11:45;22.40;99.90
14210;DHT22;7188;56.070;12.698;2022-08-04T06:14:12;22.50;99.90
14210;DHT22;7188;56.070;12.698;2022-08-04T06:16:40;22.60;99.90
14210;DHT22;7188;56.070;12.698;2022-08-04T06:19:10;22.70;99.90
14210;DHT22;7188;56.070;12.698;2022-08-04T06:21:42;22.80;99.90
14210;DHT22;7188;56.070;12.698;2022-08-04T06:24:13;23.10;76.00
14210;DHT22;7188;56.070;12.698;2022-08-04T06:26:40;23.40;1.00
14210;DHT22;7188;56.070;12.698;2022-08-04T06:29:08;23.70;1.00
14210;DHT22;7188;56.070;12.698;2022-08-04T06:31:42;23.90;1.00
14210;DHT22;7188;56.070;12.698;2022-08-04T06:34:13;24.10;1.00
14210;DHT22;7188;56.070;12.698;2022-08-04T06:36:40;24.30;99.90
14210;DHT22;7188;56.070;12.698;2022-08-04T06:39:08;24.50;99.90
14210;DHT22;7188;56.070;12.698;2022-08-04T06:41:34;24.60;1.00
14210;DHT22;7188;56.070;12.698;2022-08-04T06:44:03;24.80;1.00
14210;DHT22;7188;56.070;12.698;2022-08-04T06:46:30;25.00;1.00
14210;DHT22;7188;56.070;12.698;2022-08-04T06:48:57;25.10;99.90
14210;DHT22;7188;56.070;12.698;2022-08-04T06:51:23;25.30;86.30
14210;DHT22;7188;56.070;12.698;2022-08-04T06:53:50;25.40;1.00
14210;DHT22;7188;56.070;12.698;2022-08-04T06:56:16;25.40;1.00
14210;DHT22;7188;56.070;12.698;2022-08-04T06:58:44;25.60;56.50
14210;DHT22;7188;56.070;12.698;2022-08-04T07:01:13;25.70;99.90
14210;DHT22;7188;56.070;12.698;2022-08-04T07:03:39;25.80;99.90
14210;DHT22;7188;56.070;12.698;2022-08-04T07:06:06;25.90;1.00
14210;DHT22;7188;56.070;12.698;2022-08-04T07:08:33;25.90;1.00
14210;DHT22;7188;56.070;12.698;2022-08-04T07:10:59;26.10;1.00
14210;DHT22;7188;56.070;12.698;2022-08-04T07:13:26;26.10;99.90
14210;DHT22;7188;56.070;12.698;2022-08-04T07:15:54;26.20;99.90
14210;DHT22;7188;56.070;12.698;2022-08-04T07:18:20;26.40;1.00
14210;DHT22;7188;56.070;12.698;2022-08-04T07:20:47;26.40;99.90
14210;DHT22;7188;56.070;12.698;2022-08-04T07:23:14;26.60;99.90
14210;DHT22;7188;56.070;12.698;2022-08-04T07:25:55;26.60;99.90
14210;DHT22;7188;56.070;12.698;2022-08-04T07:28:26;26.70;99.90
14210;DHT22;7188;56.070;12.698;2022-08-04T07:30:53;26.80;99.90
14210;DHT22;7188;56.070;12.698;2022-08-04T07:33:20;26.90;99.90
14210;DHT22;7188;56.070;12.698;2022-08-04T07:35:49;27.10;99.90
14210;DHT22;7188;56.070;12.698;2022-08-04T07:38:16;27.20;99.90
14210;DHT22;7188;56.070;12.698;2022-08-04T07:40:42;27.30;99.90
14210;DHT22;7188;56.070;12.698;2022-08-04T07:43:08;27.40;99.90
14210;DHT22;7188;56.070;12.698;2022-08-04T07:45:35;27.40;99.90
14210;DHT22;7188;56.070;12.698;2022-08-04T07:48:02;27.30;99.90
14210;DHT22;7188;56.070;12.698;2022-08-04T07:50:30;27.10;99.90
14210;DHT22;7188;56.070;12.698;2022-08-04T07:52:56;27.00;99.90
14210;DHT22;7188;56.070;12.698;2022-08-04T07:55:22;27.10;99.90
14210;DHT22;7188;56.070;12.698;2022-08-04T07:57:48;27.10;99.90
14210;DHT22;7188;56.070;12.698;2022-08-04T08:00:14;27.20;99.90
14210;DHT22;7188;56.070;12.698;2022-08-04T08:02:45;27.30;99.90
14210;DHT22;7188;56.070;12.698;2022-08-04T08:05:13;27.40;99.90
14210;DHT22;7188;56.070;12.698;2022-08-04T08:07:44;27.50;99.90
14210;DHT22;7188;56.070;12.698;2022-08-04T08:10:14;27.50;99.90
14210;DHT22;7188;56.070;12.698;2022-08-04T08:12:41;27.50;99.90
14210;DHT22;7188;56.070;12.698;2022-08-04T08:15:08;27.50;99.90
14210;DHT22;7188;56.070;12.698;2022-08-04T08:17:35;27.70;99.90
14210;DHT22;7188;56.070;12.698;2022-08-04T08:20:01;27.70;99.90
14210;DHT22;7188;56.070;12.698;2022-08-04T08:22:27;27.70;99.90
14210;DHT22;7188;56.070;12.698;2022-08-04T08:24:53;27.70;99.90
14210;DHT22;7188;56.070;12.698;2022-08-04T08:27:19;27.70;99.90
14210;DHT22;7188;56.070;12.698;2022-08-04T08:29:46;27.80;99.90
14210;DHT22;7188;56.070;12.698;2022-08-04T08:32:12;27.80;99.90
14210;DHT22;7188;56.070;12.698;2022-08-04T08:34:38;27.80;1.00
14210;DHT22;7188;56.070;12.698;2022-08-04T08:37:25;27.80;1.00
14210;DHT22;7188;56.070;12.698;2022-08-04T08:45:29;27.80;99.90
14210;DHT22;7188;56.070;12.698;2022-08-04T09:10:59;28.20;99.90
14210;DHT22;7188;56.070;12.698;2022-08-04T09:21:56;28.10;99.90
14210;DHT22;7188;56.070;12.698;2022-08-04T09:27:14;28.10;99.90
14210;DHT22;7188;56.070;12.698;2022-08-04T09:33:37;28.10;99.90
14210;DHT22;7188;56.070;12.698;2022-08-04T09:44:32;28.40;99.90
14210;DHT22;7188;56.070;12.698;2022-08-04T09:47:18;28.40;1.00
14210;DHT22;7188;56.070;12.698;2022-08-04T09:52:53;28.50;92.50
14210;DHT22;7188;56.070;12.698;2022-08-04T09:55:29;28.60;1.00
14210;DHT22;7188;56.070;12.698;2022-08-04T10:00:38;28.80;99.90
14210;DHT22;7188;56.070;12.698;2022-08-04T10:03:09;28.90;1.00
14210;DHT22;7188;56.070;12.698;2022-08-04T10:06:05;28.90;99.90
14210;DHT22;7188;56.070;12.698;2022-08-04T10:09:11;29.00;99.90
14210;DHT22;7188;56.070;12.698;2022-08-04T10:11:44;29.10;99.90
14210;DHT22;7188;56.070;12.698;2022-08-04T10:23:04;29.30;99.90
14210;DHT22;7188;56.070;12.698;2022-08-04T10:26:17;29.50;99.90
14210;DHT22;7188;56.070;12.698;2022-08-04T10:28:48;29.70;99.90
14210;DHT22;7188;56.070;12.698;2022-08-04T10:31:21;29.80;99.90
14210;DHT22;7188;56.070;12.698;2022-08-04T10:33:51;29.90;99.90
14210;DHT22;7188;56.070;12.698;2022-08-04T10:36:22;29.90;99.90
14210;DHT22;7188;56.070;12.698;2022-08-04T10:39:00;30.00;99.90
14210;DHT22;7188;56.070;12.698;2022-08-04T10:41:38;30.10;99.90
14210;DHT22;7188;56.070;12.698;2022-08-04T10:46:56;30.10;99.90
14210;DHT22;7188;56.070;12.698;2022-08-04T10:49:42;30.20;99.90
14210;DHT22;7188;56.070;12.698;2022-08-04T10:52:18;30.20;99.90
14210;DHT22;7188;56.070;12.698;2022-08-04T10:54:57;30.40;99.90
14210;DHT22;7188;56.070;12.698;2022-08-04T10:57:45;30.60;99.90
14210;DHT22;7188;56.070;12.698;2022-08-04T11:00:17;30.80;99.90
14210;DHT22;7188;56.070;12.698;2022-08-04T11:05:40;31.00;99.90
14210;DHT22;7188;56.070;12.698;2022-08-04T11:11:32;31.00;99.90
14210;DHT22;7188;56.070;12.698;2022-08-04T11:14:20;31.10;99.90
14210;DHT22;7188;56.070;12.698;2022-08-04T11:17:10;31.10;99.90
14210;DHT22;7188;56.070;12.698;2022-08-04T11:28:07;31.20;99.90
14210;DHT22;7188;56.070;12.698;2022-08-04T11:33:51;31.40;99.90
14210;DHT22;7188;56.070;12.698;2022-08-04T11:36:50;31.40;99.90
14210;DHT22;7188;56.070;12.698;2022-08-04T11:42:09;31.50;99.90
14210;DHT22;7188;56.070;12.698;2022-08-04T11:50:20;31.70;99.90
14210;DHT22;7188;56.070;12.698;2022-08-04T11:52:47;31.80;99.90
14210;DHT22;7188;56.070;12.698;2022-08-04T11:55:15;31.90;99.90
14210;DHT22;7188;56.070;12.698;2022-08-04T11:57:43;31.90;99.90
14210;DHT22;7188;56.070;12.698;2022-08-04T12:00:12;31.80;99.90
14210;DHT22;7188;56.070;12.698;2022-08-04T12:05:44;32.00;99.90
14210;DHT22;7188;56.070;12.698;2022-08-04T12:08:35;32.00;99.90
14210;DHT22;7188;56.070;12.698;2022-08-04T12:11:11;32.10;99.90
14210;DHT22;7188;56.070;12.698;2022-08-04T12:14:12;32.00;99.90
14210;DHT22;7188;56.070;12.698;2022-08-04T12:17:03;32.10;99.90
14210;DHT22;7188;56.070;12.698;2022-08-04T12:19:50;32.10;99.90
14210;DHT22;7188;56.070;12.698;2022-08-04T12:22:21;32.30;99.90
14210;DHT22;7188;56.070;12.698;2022-08-04T12:25:13;32.30;99.90
14210;DHT22;7188;56.070;12.698;2022-08-04T12:28:04;32.30;99.90
14210;DHT22;7188;56.070;12.698;2022-08-04T12:30:35;32.40;99.90
14210;DHT22;7188;56.070;12.698;2022-08-04T12:33:11;32.50;99.90
14210;DHT22;7188;56.070;12.698;2022-08-04T12:35:40;32.50;99.90
14210;DHT22;7188;56.070;12.698;2022-08-04T12:38:11;32.50;99.90
14210;DHT22;7188;56.070;12.698;2022-08-04T12:40:50;32.50;99.90
14210;DHT22;7188;56.070;12.698;2022-08-04T12:43:28;32.40;99.90
14210;DHT22;7188;56.070;12.698;2022-08-04T12:45:59;32.40;99.90
14210;DHT22;7188;56.070;12.698;2022-08-04T12:48:27;32.50;99.90
14210;DHT22;7188;56.070;12.698;2022-08-04T12:50:54;32.50;99.90
14210;DHT22;7188;56.070;12.698;2022-08-04T12:53:41;32.30;99.90
14210;DHT22;7188;56.070;12.698;2022-08-04T12:56:11;32.40;99.90
14210;DHT22;7188;56.070;12.698;2022-08-04T12:58:43;32.50;99.90
14210;DHT22;7188;56.070;12.698;2022-08-04T13:01:18;32.40;99.90
14210;DHT22;7188;56.070;12.698;2022-08-04T13:03:52;32.30;99.90
14210;DHT22;7188;56.070;12.698;2022-08-04T13:06:33;32.10;99.90
14210;DHT22;7188;56.070;12.698;2022-08-04T13:09:08;32.20;99.90
14210;DHT22;7188;56.070;12.698;2022-08-04T13:11:48;32.40;99.90
14210;DHT22;7188;56.070;12.698;2022-08-04T13:14:16;32.70;99.90
14210;DHT22;7188;56.070;12.698;2022-08-04T13:16:43;32.80;99.90
14210;DHT22;7188;56.070;12.698;2022-08-04T13:19:09;32.90;99.90
14210;DHT22;7188;56.070;12.698;2022-08-04T13:21:42;32.90;99.90
14210;DHT22;7188;56.070;12.698;2022-08-04T13:24:15;32.80;99.90
14210;DHT22;7188;56.070;12.698;2022-08-04T13:27:06;32.80;99.90
14210;DHT22;7188;56.070;12.698;2022-08-04T13:29:41;32.70;99.90
14210;DHT22;7188;56.070;12.698;2022-08-04T13:32:08;32.70;99.90
14210;DHT22;7188;56.070;12.698;2022-08-04T13:34:35;32.80;99.90
14210;DHT22;7188;56.070;12.698;2022-08-04T13:37:02;32.90;99.90
14210;DHT22;7188;56.070;12.698;2022-08-04T13:39:29;33.00;99.90
14210;DHT22;7188;56.070;12.698;2022-08-04T13:41:57;32.90;99.90
14210;DHT22;7188;56.070;12.698;2022-08-04T13:44:30;32.80;99.90
14210;DHT22;7188;56.070;12.698;2022-08-04T13:47:00;32.70;99.90
14210;DHT22;7188;56.070;12.698;2022-08-04T13:49:27;32.40;99.90
14210;DHT22;7188;56.070;12.698;2022-08-04T13:51:56;32.10;99.90
14210;DHT22;7188;56.070;12.698;2022-08-04T13:54:23;32.20;99.90
14210;DHT22;7188;56.070;12.698;2022-08-04T13:56:54;32.30;99.90
14210;DHT22;7188;56.070;12.698;2022-08-04T13:59:33;32.40;99.90
14210;DHT22;7188;56.070;12.698;2022-08-04T14:02:07;32.60;99.90
14210;DHT22;7188;56.070;12.698;2022-08-04T14:04:40;32.50;99.90
14210;DHT22;7188;56.070;12.698;2022-08-04T14:07:12;32.60;99.90
14210;DHT22;7188;56.070;12.698;2022-08-04T14:09:40;32.60;99.90
14210;DHT22;7188;56.070;12.698;2022-08-04T14:12:07;32.50;99.90
14210;DHT22;7188;56.070;12.698;2022-08-04T14:14:35;32.20;99.90
14210;DHT22;7188;56.070;12.698;2022-08-04T14:17:05;32.10;99.90
14210;DHT22;7188;56.070;12.698;2022-08-04T14:24:56;32.00;99.90
14210;DHT22;7188;56.070;12.698;2022-08-04T14:27:22;32.00;99.90
14210;DHT22;7188;56.070;12.698;2022-08-04T14:29:48;32.00;99.90
14210;DHT22;7188;56.070;12.698;2022-08-04T14:32:14;32.10;99.90
14210;DHT22;7188;56.070;12.698;2022-08-04T14:34:41;32.20;99.90
14210;DHT22;7188;56.070;12.698;2022-08-04T14:37:09;32.20;99.90
14210;DHT22;7188;56.070;12.698;2022-08-04T14:39:50;32.30;99.90
14210;DHT22;7188;56.070;12.698;2022-08-04T14:42:17;32.20;99.90
14210;DHT22;7188;56.070;12.698;2022-08-04T14:44:54;32.10;99.90
14210;DHT22;7188;56.070;12.698;2022-08-04T14:47:43;31.90;99.90
14210;DHT22;7188;56.070;12.698;2022-08-04T14:50:11;31.50;99.90
14210;DHT22;7188;56.070;12.698;2022-08-04T14:52:38;31.20;99.90
14210;DHT22;7188;56.070;12.698;2022-08-04T14:55:21;31.10;99.90
14210;DHT22;7188;56.070;12.698;2022-08-04T14:57:51;31.00;99.90
14210;DHT22;7188;56.070;12.698;2022-08-04T15:00:29;30.80;99.90
14210;DHT22;7188;56.070;12.698;2022-08-04T15:03:05;30.70;99.90
14210;DHT22;7188;56.070;12.698;2022-08-04T15:06:08;30.60;99.90
14210;DHT22;7188;56.070;12.698;2022-08-04T15:08:34;30.50;99.90
14210;DHT22;7188;56.070;12.698;2022-08-04T15:11:00;30.50;99.90
14210;DHT22;7188;56.070;12.698;2022-08-04T15:13:28;30.50;99.90
14210;DHT22;7188;56.070;12.698;2022-08-04T15:15:54;30.40;99.90
14210;DHT22;7188;56.070;12.698;2022-08-04T15:18:20;30.50;99.90
14210;DHT22;7188;56.070;12.698;2022-08-04T15:20:46;30.60;99.90
14210;DHT22;7188;56.070;12.698;2022-08-04T15:23:12;30.70;99.90
14210;DHT22;7188;56.070;12.698;2022-08-04T15:25:46;30.80;99.90
14210;DHT22;7188;56.070;12.698;2022-08-04T15:28:26;30.90;99.90
14210;DHT22;7188;56.070;12.698;2022-08-04T15:30:54;31.00;99.90
14210;DHT22;7188;56.070;12.698;2022-08-04T15:33:22;31.10;99.90
14210;DHT22;7188;56.070;12.698;2022-08-04T15:36:09;31.00;99.90
14210;DHT22;7188;56.070;12.698;2022-08-04T15:38:41;30.90;99.90
14210;DHT22;7188;56.070;12.698;2022-08-04T15:41:17;30.80;99.90
14210;DHT22;7188;56.070;12.698;2022-08-04T15:44:16;30.90;99.90
14210;DHT22;7188;56.070;12.698;2022-08-04T15:49:22;31.00;99.90
14210;DHT22;7188;56.070;12.698;2022-08-04T15:52:03;31.00;99.90
14210;DHT22;7188;56.070;12.698;2022-08-04T15:54:29;31.00;99.90
14210;DHT22;7188;56.070;12.698;2022-08-04T15:56:55;31.00;99.90
14210;DHT22;7188;56.070;12.698;2022-08-04T16:08:07;31.00;99.90
14210;DHT22;7188;56.070;12.698;2022-08-04T16:10:42;31.00;99.90
14210;DHT22;7188;56.070;12.698;2022-08-04T16:13:13;30.80;99.90
14210;DHT22;7188;56.070;12.698;2022-08-04T16:15:51;30.80;99.90
14210;DHT22;7188;56.070;12.698;2022-08-04T16:21:01;30.80;99.90
14210;DHT22;7188;56.070;12.698;2022-08-04T16:29:27;31.00;99.90
14210;DHT22;7188;56.070;12.698;2022-08-04T16:37:08;30.70;99.90
14210;DHT22;7188;56.070;12.698;2022-08-04T16:39:35;30.60;99.90
14210;DHT22;7188;56.070;12.698;2022-08-04T16:47:59;30.30;99.90
14210;DHT22;7188;56.070;12.698;2022-08-04T16:50:25;30.10;99.90
14210;DHT22;7188;56.070;12.698;2022-08-04T16:52:53;30.00;99.90
14210;DHT22;7188;56.070;12.698;2022-08-04T16:55:26;29.90;99.90
14210;DHT22;7188;56.070;12.698;2022-08-04T16:57:54;29.80;99.90
14210;DHT22;7188;56.070;12.698;2022-08-04T17:00:30;29.70;99.90
14210;DHT22;7188;56.070;12.698;2022-08-04T17:02:56;29.70;99.90
14210;DHT22;7188;56.070;12.698;2022-08-04T17:05:24;29.60;99.90
14210;DHT22;7188;56.070;12.698;2022-08-04T17:07:51;29.40;99.90
14210;DHT22;7188;56.070;12.698;2022-08-04T17:10:17;29.30;99.90
14210;DHT22;7188;56.070;12.698;2022-08-04T17:12:44;29.20;99.90
14210;DHT22;7188;56.070;12.698;2022-08-04T17:15:23;29.00;99.90
14210;DHT22;7188;56.070;12.698;2022-08-04T17:17:49;28.90;99.90
14210;DHT22;7188;56.070;12.698;2022-08-04T17:20:15;28.80;99.90
14210;DHT22;7188;56.070;12.698;2022-08-04T17:22:42;28.70;99.90
14210;DHT22;7188;56.070;12.698;2022-08-04T17:25:08;28.70;99.90
14210;DHT22;7188;56.070;12.698;2022-08-04T17:27:34;28.60;99.90
14210;DHT22;7188;56.070;12.698;2022-08-04T17:30:01;28.50;99.90
14210;DHT22;7188;56.070;12.698;2022-08-04T17:32:26;28.40;99.90
14210;DHT22;7188;56.070;12.698;2022-08-04T17:34:54;28.40;99.90
14210;DHT22;7188;56.070;12.698;2022-08-04T17:37:21;28.30;99.90
14210;DHT22;7188;56.070;12.698;2022-08-04T17:39:50;28.40;99.90
14210;DHT22;7188;56.070;12.698;2022-08-04T17:42:33;28.30;99.90
14210;DHT22;7188;56.070;12.698;2022-08-04T17:45:11;28.20;99.90
14210;DHT22;7188;56.070;12.698;2022-08-04T17:47:50;27.80;99.90
14210;DHT22;7188;56.070;12.698;2022-08-04T17:50:24;27.30;99.90
14210;DHT22;7188;56.070;12.698;2022-08-04T17:53:04;27.00;99.90
14210;DHT22;7188;56.070;12.698;2022-08-04T17:55:42;26.60;99.90
14210;DHT22;7188;56.070;12.698;2022-08-04T17:58:19;26.20;99.90
14210;DHT22;7188;56.070;12.698;2022-08-04T18:00:44;26.00;99.90
14210;DHT22;7188;56.070;12.698;2022-08-04T18:03:26;25.80;99.90
14210;DHT22;7188;56.070;12.698;2022-08-04T18:05:52;25.70;99.90
14210;DHT22;7188;56.070;12.698;2022-08-04T18:08:25;25.60;99.90
14210;DHT22;7188;56.070;12.698;2022-08-04T18:10:52;25.50;99.90
14210;DHT22;7188;56.070;12.698;2022-08-04T18:13:19;25.50;99.90
14210;DHT22;7188;56.070;12.698;2022-08-04T18:15:45;25.40;99.90
14210;DHT22;7188;56.070;12.698;2022-08-04T18:18:19;25.30;99.90
14210;DHT22;7188;56.070;12.698;2022-08-04T18:20:45;25.30;99.90
14210;DHT22;7188;56.070;12.698;2022-08-04T18:23:12;25.30;99.90
14210;DHT22;7188;56.070;12.698;2022-08-04T18:25:43;25.20;99.90
14210;DHT22;7188;56.070;12.698;2022-08-04T18:28:09;25.10;99.90
14210;DHT22;7188;56.070;12.698;2022-08-04T18:30:35;24.90;99.90
14210;DHT22;7188;56.070;12.698;2022-08-04T18:33:01;24.90;99.90
14210;DHT22;7188;56.070;12.698;2022-08-04T18:35:29;24.90;99.90
14210;DHT22;7188;56.070;12.698;2022-08-04T18:37:55;24.90;99.90
14210;DHT22;7188;56.070;12.698;2022-08-04T18:40:21;24.90;99.90
14210;DHT22;7188;56.070;12.698;2022-08-04T18:42:46;24.90;99.90
14210;DHT22;7188;56.070;12.698;2022-08-04T18:45:12;24.90;99.90
14210;DHT22;7188;56.070;12.698;2022-08-04T18:47:39;24.70;99.90
14210;DHT22;7188;56.070;12.698;2022-08-04T18:50:05;24.70;99.90
14210;DHT22;7188;56.070;12.698;2022-08-04T18:52:31;24.70;99.90
14210;DHT22;7188;56.070;12.698;2022-08-04T18:54:57;24.70;99.90
14210;DHT22;7188;56.070;12.698;2022-08-04T18:57:25;24.70;99.90
14210;DHT22;7188;56.070;12.698;2022-08-04T18:59:52;24.60;99.90
14210;DHT22;7188;56.070;12.698;2022-08-04T19:02:20;24.60;99.90
14210;DHT22;7188;56.070;12.698;2022-08-04T19:04:45;24.50;99.90
14210;DHT22;7188;56.070;12.698;2022-08-04T19:07:11;24.50;99.90
14210;DHT22;7188;56.070;12.698;2022-08-04T19:09:39;24.50;99.90
14210;DHT22;7188;56.070;12.698;2022-08-04T19:12:05;24.60;99.90
14210;DHT22;7188;56.070;12.698;2022-08-04T19:14:30;24.60;99.90
14210;DHT22;7188;56.070;12.698;2022-08-04T19:16:56;24.60;99.90
14210;DHT22;7188;56.070;12.698;2022-08-04T19:19:22;24.60;99.90
14210;DHT22;7188;56.070;12.698;2022-08-04T19:21:47;24.60;99.90
14210;DHT22;7188;56.070;12.698;2022-08-04T19:24:14;24.60;99.90
14210;DHT22;7188;56.070;12.698;2022-08-04T19:26:40;24.50;99.90
14210;DHT22;7188;56.070;12.698;2022-08-04T19:29:06;24.40;99.90
14210;DHT22;7188;56.070;12.698;2022-08-04T19:31:32;24.20;99.90
14210;DHT22;7188;56.070;12.698;2022-08-04T19:33:58;24.20;99.90
14210;DHT22;7188;56.070;12.698;2022-08-04T19:36:25;24.10;99.90
14210;DHT22;7188;56.070;12.698;2022-08-04T19:38:53;24.00;99.90
14210;DHT22;7188;56.070;12.698;2022-08-04T19:41:19;23.80;99.90
14210;DHT22;7188;56.070;12.698;2022-08-04T19:43:45;23.80;99.90
14210;DHT22;7188;56.070;12.698;2022-08-04T19:46:12;23.70;99.90
14210;DHT22;7188;56.070;12.698;2022-08-04T19:48:39;23.60;99.90
14210;DHT22;7188;56.070;12.698;2022-08-04T19:51:05;23.60;99.90
14210;DHT22;7188;56.070;12.698;2022-08-04T19:53:30;23.50;99.90
14210;DHT22;7188;56.070;12.698;2022-08-04T19:55:56;23.50;99.90
14210;DHT22;7188;56.070;12.698;2022-08-04T19:58:22;23.50;99.90
14210;DHT22;7188;56.070;12.698;2022-08-04T20:00:49;23.40;99.90
14210;DHT22;7188;56.070;12.698;2022-08-04T20:03:16;23.40;99.90
14210;DHT22;7188;56.070;12.698;2022-08-04T20:05:42;23.30;99.90
14210;DHT22;7188;56.070;12.698;2022-08-04T20:08:09;23.30;99.90
14210;DHT22;7188;56.070;12.698;2022-08-04T20:10:35;23.30;99.90
14210;DHT22;7188;56.070;12.698;2022-08-04T20:13:01;23.20;99.90
14210;DHT22;7188;56.070;12.698;2022-08-04T20:15:26;23.20;99.90
14210;DHT22;7188;56.070;12.698;2022-08-04T20:17:52;23.10;99.90
14210;DHT22;7188;56.070;12.698;2022-08-04T20:20:18;23.10;99.90
14210;DHT22;7188;56.070;12.698;2022-08-04T20:22:43;23.10;99.90
14210;DHT22;7188;56.070;12.698;2022-08-04T20:25:09;23.10;99.90
14210;DHT22;7188;56.070;12.698;2022-08-04T20:27:35;23.10;99.90
14210;DHT22;7188;56.070;12.698;2022-08-04T20:30:01;23.00;99.90
14210;DHT22;7188;56.070;12.698;2022-08-04T20:32:27;23.00;99.90